WetterOnline ( http://www.wetteronline.ch )

Wetter aktuell Schleswig

Aktuelles Wetter: Schleswig (48m)

6-stündlich | Neueste Meldungen
Ortszeit Temperatur Wetter
Fr, 23.02. 19:00 -1.7° C wolkenlos
Fr, 23.02. 13:00 1.1° C leicht bewölkt
Fr, 23.02. 7:00 -1.0° C wolkig
Fr, 23.02. 1:00 -2.6° C wolkenlos
Do, 22.02. 19:00 -0.7° C leicht bewölkt
Do, 22.02. 13:00 1.8° C bedeckt
Do, 22.02. 7:00 0.1° C bedeckt
Do, 22.02. 1:00 -0.1° C leichter Schneefall
Ortszeit Temperatur Wetter
Sa, 24.02. 0:30 -2.0° C bewölkt
Sa, 24.02. 0:20 -2.0° C bedeckt
Sa, 24.02. 0:10 -2.2° C bedeckt
Sa, 24.02. 0:00 -2.6° C wolkig
Fr, 23.02. 23:50 -2.6° C wolkig
Fr, 23.02. 23:40 -2.9° C leicht bewölkt
Fr, 23.02. 23:30 -2.8° C wolkenlos
Fr, 23.02. 23:00 -2.6° C wolkenlos
Fr, 23.02. 22:30 -3.0° C wolkenlos
Fr, 23.02. 22:00 -3.0° C wolkenlos
Fr, 23.02. 21:30 -2.8° C wolkenlos
Ortszeit Relative Feuchte Sichtweite
Fr, 23.02. 19:00 75% 25 km
Fr, 23.02. 13:00 59% 30 km
Fr, 23.02. 7:00 81% 18 km
Fr, 23.02. 1:00 92% 25 km
Do, 22.02. 19:00 91% 10 km
Do, 22.02. 13:00 85% 7 km
Do, 22.02. 7:00 86% 6 km
Do, 22.02. 1:00 84% 8 km
Ortszeit Relative Feuchte Sichtweite
Sa, 24.02. 0:30 89% 20 km
Sa, 24.02. 0:20 89% -
Sa, 24.02. 0:10 90% -
Sa, 24.02. 0:00 90% 19 km
Fr, 23.02. 23:50 90% -
Fr, 23.02. 23:40 91% -
Fr, 23.02. 23:30 89% 20 km
Fr, 23.02. 23:00 87% 20 km
Fr, 23.02. 22:30 88% 20 km
Fr, 23.02. 22:00 87% 20 km
Fr, 23.02. 21:30 86% 20 km
Ortszeit Niederschlagsmenge Niederschlagsart
Fr, 23.02. 19:00 0.0 l/m2 in 12 Std. -
Fr, 23.02. 13:00 0.0 l/m2 in 6 Std. -
Fr, 23.02. 7:00 0.1 l/m2 in 12 Std. Schnee
Fr, 23.02. 1:00 0.0 l/m2 in 6 Std. -
Do, 22.02. 19:00 0.1 l/m2 in 12 Std. -
Do, 22.02. 13:00 0.1 l/m2 in 6 Std. Schnee
Do, 22.02. 7:00 0.1 l/m2 in 12 Std. Schnee
Do, 22.02. 1:00 0.1 l/m2 in 6 Std. Schnee
Ortszeit Niederschlagsmenge Niederschlagsart
Sa, 24.02. 0:30 0.0 l/m2 in 1 Std. -
Sa, 24.02. 0:20 keine Meldung -
Sa, 24.02. 0:10 keine Meldung -
Sa, 24.02. 0:00 0.0 l/m2 in 1 Std. -
Fr, 23.02. 23:50 keine Meldung -
Fr, 23.02. 23:40 keine Meldung -
Fr, 23.02. 23:30 0.0 l/m2 in 1 Std. -
Fr, 23.02. 23:00 0.0 l/m2 in 1 Std. -
Fr, 23.02. 22:30 0.0 l/m2 in 1 Std. -
Fr, 23.02. 22:00 0.0 l/m2 in 1 Std. -
Fr, 23.02. 21:30 0.0 l/m2 in 1 Std. -
Ortszeit Stärke Spitze Richtung
km/h Bft. km/h Grad Sektor
Fr, 23.02. 19:00 7 2 33 60° NO
Fr, 23.02. 13:00 18 3 32 90° O
Fr, 23.02. 7:00 9 2 17 110° O
Fr, 23.02. 1:00 7 2 14 50° NO
Do, 22.02. 19:00 4 1 22 60° NO
Do, 22.02. 13:00 7 2 14 60° NO
Do, 22.02. 7:00 7 2 14 240° SW
Do, 22.02. 1:00 6 1 11 320° NW
Ortszeit Stärke Spitze Richtung
km/h Bft. km/h Grad Sektor
Sa, 24.02. 0:30 6 1 7 50° NO
Sa, 24.02. 0:20 6 1 - 50° NO
Sa, 24.02. 0:10 6 1 - 50° NO
Sa, 24.02. 0:00 6 1 11 70° O
Fr, 23.02. 23:50 6 1 - 70° O
Fr, 23.02. 23:40 6 1 - 60° NO
Fr, 23.02. 23:30 7 2 11 70° O
Fr, 23.02. 23:00 7 2 14 80° O
Fr, 23.02. 22:30 6 1 11 70° O
Fr, 23.02. 22:00 7 2 11 70° O
Fr, 23.02. 21:30 6 1 11 70° O
Ortszeit Untergrenze Bedeckung Gattung
total tief tief mittel hoch
Fr, 23.02. 19:00 - 0/8 0/8 - - -
Fr, 23.02. 13:00 780 m 7/8 1/8 Cu - Ci
Fr, 23.02. 7:00 990 m 6/8 6/8 Sc Ac -
Fr, 23.02. 1:00 - 0/8 0/8 - - -
Do, 22.02. 19:00 420 m 3/8 3/8 Cu - -
Do, 22.02. 13:00 270 m 8/8 7/8 Sc - -
Do, 22.02. 7:00 480 m 8/8 7/8 Sc - -
Do, 22.02. 1:00 990 m 7/8 7/8 Sc - -
Ortszeit Bedeckungsgrad in Achtel und Wolkenuntergrenze
Sa, 24.02. 0:30 7(600m)
Sa, 24.02. 0:20 8(540m)
Sa, 24.02. 0:10 8(540m)
Sa, 24.02. 0:00 5(540m)
Fr, 23.02. 23:50 5(540m)
Fr, 23.02. 23:40 2(540m)
Fr, 23.02. 23:30 keine Wolken
Fr, 23.02. 23:00 keine Wolken
Fr, 23.02. 22:30 keine Wolken
Fr, 23.02. 22:00 keine Wolken
Fr, 23.02. 21:30 keine Wolken
Ortszeit Luftdruck NN (hPa) Tendenz (hPa in 3 Std.)
Fr, 23.02. 19:00 1029 + 0,4
Fr, 23.02. 13:00 1029 - 0,1
Fr, 23.02. 7:00 1028 + 0,5
Fr, 23.02. 1:00 1028 + 0,1
Do, 22.02. 19:00 1028 + 0,5
Do, 22.02. 13:00 1028 + 0,4
Do, 22.02. 7:00 1027 - 0,7
Do, 22.02. 1:00 1028 - 0,1
Ortszeit Luftdruck NN (hPa) Tendenz (hPa in 3 Std.)
Sa, 24.02. 0:30 1030 + 0,6
Sa, 24.02. 0:20 1030 keine Meldung
Sa, 24.02. 0:10 1030 keine Meldung
Sa, 24.02. 0:00 1030 + 0,8
Fr, 23.02. 23:50 1030 keine Meldung
Fr, 23.02. 23:40 1030 keine Meldung
Fr, 23.02. 23:30 1030 + 1,0
Fr, 23.02. 23:00 1030 + 0,9
Fr, 23.02. 22:30 1030 + 0,8
Fr, 23.02. 22:00 1030 + 0,6
Fr, 23.02. 21:30 1030 + 0,6
Ortszeit Schneehöhe (cm)
Fr, 23.02. 19:00 0
Fr, 23.02. 13:00 0
Fr, 23.02. 7:00 0
Fr, 23.02. 1:00 0
Do, 22.02. 19:00 0
Do, 22.02. 13:00 0
Do, 22.02. 7:00 0
Do, 22.02. 1:00 0
Ortszeit Schneehöhe (cm)
Sa, 24.02. 0:30 -
Sa, 24.02. 0:20 -
Sa, 24.02. 0:10 -
Sa, 24.02. 0:00 -
Fr, 23.02. 23:50 -
Fr, 23.02. 23:40 -
Fr, 23.02. 23:30 -
Fr, 23.02. 23:00 -
Fr, 23.02. 22:30 -
Fr, 23.02. 22:00 -
Fr, 23.02. 21:30 -
Link zu dieser Seite / Seite empfehlen

Das Wetter in ...